Overview Statistics Trail Chart Weather Telemetry Raw packets
 

This is the latest recevied weather packets stored in our database for station/object K0QED. If no packets are shown the sender has not sent any weather packets the latest 10 day(s).

<< 79 80 81 82 83 84 85 >>
Time Temp. Humidity Pressure Rain* Wind** Luminosity Snow
1788047596 21.67° C 45% 1024.6 hPa 0 mm - 128 W/m² -
1788047296 21.67° C 45% 1025.1 hPa 0 mm - 128 W/m² -
1788046990 21.67° C 46% 1025.1 hPa 0 mm - 159 W/m² -
1788046690 21.11° C 46% 1024.9 hPa 0 mm - 151 W/m² -
1788046385 20.56° C 48% 1025.2 hPa 0 mm - 102 W/m² -
1788046082 20.56° C 48% 1025.4 hPa 0 mm - 132 W/m² -
1788045778 20° C 50% 1025.5 hPa 0 mm - 121 W/m² -
1788045473 19.44° C 54% 1025.9 hPa 0 mm - 82 W/m² -
1788045169 18.33° C 57% 1026 hPa 0 mm - 42 W/m² -
1788044863 19.44° C 61% 1026.2 hPa 0 mm - 42 W/m² -
1788044558 21.67° C 49% 1026.4 hPa 0 mm - 42 W/m² -
1788044256 24.44° C 39% 1025.9 hPa 0 mm - 27 W/m² -
1788043953 25.56° C 36% 1025.6 hPa 0 mm - 22 W/m² -
1788043648 25.56° C 36% 1025.4 hPa 0 mm - 35 W/m² -
1788043343 26.11° C 35% 1025.4 hPa 0 mm - 48 W/m² -
1788043043 26.67° C 35% 1025.2 hPa 0 mm - 50 W/m² -
1788042738 26.67° C 35% 1025.1 hPa 0 mm - 73 W/m² -
1788042437 26.67° C 34% 1024.7 hPa 0 mm - 92 W/m² -
1788042132 26.67° C 35% 1024.9 hPa 0 mm - 111 W/m² -
1788041828 27.22° C 33% 1024.6 hPa 0 mm - 105 W/m² -
1788041523 27.22° C 33% 1024.5 hPa 0 mm - 95 W/m² -
1788041218 28.33° C 31% 1024.7 hPa 0 mm - 101 W/m² -
1788040916 28.89° C 30% 1024.7 hPa 0 mm - 272 W/m² -
1788040615 28.89° C 30% 1024.9 hPa 0 mm - 390 W/m² -
1788040311 29.44° C 29% 1024.6 hPa 0 mm - 505 W/m² -

* Rain latest hour (hover to see other rain measurements)
** Current wind speed in m/s (hover to see current wind gust speed)